createdAt,value
2019-02-10T00:00:36.954Z,2.50
2019-02-10T00:03:06.330Z,3.27
2019-02-10T00:05:36.126Z,3.47
2019-02-10T00:08:05.775Z,2.60
2019-02-10T00:10:35.167Z,3.20
2019-02-10T00:13:26.534Z,3.40
2019-02-10T00:15:56.790Z,2.80
2019-02-10T00:18:28.415Z,2.33
2019-02-10T00:20:58.150Z,2.80
2019-02-10T00:23:27.986Z,3.17
2019-02-10T00:25:57.449Z,2.77
2019-02-10T00:28:27.146Z,3.07
2019-02-10T00:30:56.474Z,2.63
2019-02-10T00:33:25.878Z,2.80
2019-02-10T00:35:55.277Z,3.92
2019-02-10T00:38:28.137Z,4.13
2019-02-10T00:40:57.551Z,2.93
2019-02-10T00:43:26.913Z,3.03
2019-02-10T00:45:56.310Z,3.07
2019-02-10T00:48:31.145Z,3.40
2019-02-10T00:51:00.748Z,3.23
2019-02-10T00:53:31.534Z,3.70
2019-02-10T00:56:01.230Z,3.23
2019-02-10T00:58:30.833Z,3.27
2019-02-10T01:01:00.542Z,2.93
2019-02-10T01:03:29.845Z,2.97
2019-02-10T01:05:59.559Z,3.67
2019-02-10T01:08:29.230Z,3.10
2019-02-10T01:10:58.517Z,3.33
2019-02-10T01:13:27.902Z,5.50
2019-02-10T01:15:57.272Z,3.83
2019-02-10T01:18:26.641Z,4.93
2019-02-10T01:20:55.950Z,4.13
2019-02-10T01:23:25.264Z,3.30
2019-02-10T01:25:54.798Z,3.47
2019-02-10T01:28:29.935Z,2.90
2019-02-10T01:31:02.076Z,3.53
2019-02-10T01:33:31.784Z,4.17
2019-02-10T01:36:01.425Z,3.80
2019-02-10T01:38:31.171Z,4.07
2019-02-10T01:41:00.664Z,3.23
2019-02-10T01:43:29.961Z,3.90
2019-02-10T01:45:59.906Z,3.83
2019-02-10T01:48:29.225Z,4.10
2019-02-10T01:50:58.967Z,3.83
2019-02-10T01:53:28.734Z,3.60
2019-02-10T01:55:58.517Z,3.30
2019-02-10T01:58:27.836Z,3.90
2019-02-10T02:00:57.211Z,5.07
2019-02-10T02:03:28.530Z,3.20
2019-02-10T02:05:58.017Z,3.40
2019-02-10T02:08:27.586Z,3.07
2019-02-10T02:10:56.944Z,4.27
2019-02-10T02:13:26.404Z,2.57
2019-02-10T02:15:56.039Z,2.60
2019-02-10T02:18:28.820Z,3.10
2019-02-10T02:20:58.184Z,2.63
2019-02-10T02:23:29.007Z,3.20
2019-02-10T02:25:58.314Z,2.77
2019-02-10T02:28:27.717Z,2.77
2019-02-10T02:30:57.026Z,2.97
2019-02-10T02:33:26.337Z,2.20
2019-02-10T02:35:55.663Z,2.67
2019-02-10T02:38:31.844Z,2.00
2019-02-10T02:41:01.582Z,2.17
2019-02-10T02:43:31.741Z,2.30
2019-02-10T02:46:01.005Z,2.00
2019-02-10T02:48:30.379Z,2.10
2019-02-10T02:51:00.977Z,2.13
2019-02-10T02:53:30.644Z,2.80
2019-02-10T02:55:59.978Z,1.87
2019-02-10T02:58:29.597Z,2.70
2019-02-10T03:00:58.898Z,2.73
2019-02-10T03:03:28.330Z,2.17
2019-02-10T03:05:57.961Z,2.30
2019-02-10T03:08:29.900Z,2.70
2019-02-10T03:10:59.151Z,2.50
2019-02-10T03:13:29.031Z,2.10
2019-02-10T03:15:58.306Z,2.50
2019-02-10T03:18:27.840Z,3.23
2019-02-10T03:20:57.149Z,2.93
2019-02-10T03:23:26.734Z,2.30
2019-02-10T03:25:56.136Z,3.57
2019-02-10T03:28:25.521Z,3.13
2019-02-10T03:30:55.175Z,2.40
2019-02-10T03:33:24.566Z,2.20
2019-02-10T03:35:54.052Z,1.67
2019-02-10T03:38:23.513Z,1.37
2019-02-10T03:40:53.222Z,2.13
2019-02-10T03:43:22.465Z,1.93
2019-02-10T03:45:51.729Z,1.60
2019-02-10T03:48:21.082Z,1.00
2019-02-10T03:50:50.456Z,1.40
2019-02-10T03:53:19.826Z,2.03
2019-02-10T03:55:49.130Z,1.20
2019-02-10T03:58:22.395Z,1.57
2019-02-10T04:00:51.689Z,1.50
2019-02-10T04:03:21.275Z,1.50
2019-02-10T04:05:50.605Z,1.27
2019-02-10T04:08:19.888Z,1.40
2019-02-10T04:10:49.390Z,1.20
2019-02-10T04:13:18.782Z,1.20
2019-02-10T04:15:48.150Z,1.93
2019-02-10T04:18:18.091Z,1.60
2019-02-10T04:20:49.858Z,1.60
2019-02-10T04:23:19.542Z,1.73
2019-02-10T04:25:49.004Z,2.37
2019-02-10T04:28:18.375Z,2.20
2019-02-10T04:30:49.894Z,2.53
2019-02-10T04:33:26.402Z,1.60
2019-02-10T04:35:55.827Z,1.70
2019-02-10T04:38:25.235Z,1.60
2019-02-10T04:40:54.621Z,2.00
2019-02-10T04:43:27.477Z,2.10
2019-02-10T04:45:56.863Z,1.50
2019-02-10T04:48:26.335Z,1.70
2019-02-10T04:50:55.671Z,2.20
2019-02-10T04:53:25.047Z,2.17
2019-02-10T04:56:22.812Z,2.17
2019-02-10T04:58:52.204Z,1.93
2019-02-10T05:01:21.617Z,2.10
2019-02-10T05:03:50.937Z,2.23
2019-02-10T05:06:20.581Z,2.03
2019-02-10T05:08:49.933Z,2.30
2019-02-10T05:11:19.298Z,2.10
2019-02-10T05:13:48.914Z,2.40
2019-02-10T05:16:18.264Z,2.47
2019-02-10T05:18:48.210Z,2.33
2019-02-10T05:21:17.893Z,3.07
2019-02-10T05:23:47.678Z,2.40
2019-02-10T05:26:17.045Z,2.17
2019-02-10T05:28:48.063Z,2.77
2019-02-10T05:31:17.486Z,2.17
2019-02-10T05:33:47.196Z,3.00
2019-02-10T05:36:16.614Z,3.80
2019-02-10T05:38:48.274Z,2.93
2019-02-10T05:41:17.660Z,3.30
2019-02-10T05:43:49.463Z,3.10
2019-02-10T05:46:18.905Z,3.43
2019-02-10T05:48:48.574Z,3.20
2019-02-10T05:51:17.911Z,3.10
2019-02-10T05:53:47.646Z,3.50
2019-02-10T05:56:17.063Z,3.93
2019-02-10T05:58:46.630Z,3.90
2019-02-10T06:01:51.899Z,3.40
2019-02-10T06:04:21.343Z,3.70
2019-02-10T06:06:51.145Z,3.87
2019-02-10T06:09:20.561Z,3.77
2019-02-10T06:11:49.927Z,4.33
2019-02-10T06:14:19.347Z,4.03
2019-02-10T06:16:51.640Z,4.63
2019-02-10T06:19:21.075Z,4.10
2019-02-10T06:21:50.411Z,5.63
2019-02-10T06:24:19.742Z,6.30
2019-02-10T06:26:49.289Z,6.30
2019-02-10T06:29:18.958Z,6.00
2019-02-10T06:31:48.743Z,6.40
2019-02-10T06:34:18.176Z,6.53
2019-02-10T06:36:48.787Z,6.10
2019-02-10T06:39:18.208Z,6.03
2019-02-10T06:41:47.518Z,7.13
2019-02-10T06:44:17.117Z,7.13
2019-02-10T06:46:46.417Z,7.00
2019-02-10T06:49:15.741Z,7.17
2019-02-10T06:51:45.701Z,6.97
2019-02-10T06:54:15.962Z,7.30
2019-02-10T06:56:45.342Z,5.90
2019-02-10T06:59:31.295Z,6.20
2019-02-10T07:02:06.317Z,6.77
2019-02-10T07:04:35.668Z,7.00
2019-02-10T07:07:05.029Z,6.13
2019-02-10T07:09:34.320Z,6.17
2019-02-10T07:12:40.492Z,6.47
2019-02-10T07:15:46.615Z,6.67
2019-02-10T07:19:02.096Z,7.07
2019-02-10T07:21:35.020Z,7.17
2019-02-10T07:24:33.132Z,7.60
2019-02-10T07:27:26.807Z,7.23
2019-02-10T07:30:21.508Z,7.33
2019-02-10T07:32:51.965Z,6.40
2019-02-10T07:35:47.228Z,7.37
2019-02-10T07:38:53.985Z,6.33
2019-02-10T07:42:22.589Z,5.13
2019-02-10T07:45:13.171Z,3.93
2019-02-10T07:48:14.774Z,4.70
2019-02-10T07:51:18.238Z,4.70
2019-02-10T07:54:42.312Z,4.20
2019-02-10T07:57:57.400Z,4.73
2019-02-10T08:00:37.594Z,5.63
2019-02-10T08:03:48.850Z,6.20
2019-02-10T08:06:41.442Z,6.17
2019-02-10T08:09:35.908Z,5.60
2019-02-10T08:12:29.947Z,5.73
2019-02-10T08:15:42.222Z,4.83
2019-02-10T08:18:30.678Z,4.23
2019-02-10T08:21:26.532Z,3.17
2019-02-10T08:24:37.053Z,2.67
2019-02-10T08:27:51.038Z,2.73
2019-02-10T08:30:58.303Z,1.93
2019-02-10T08:33:51.651Z,2.20
2019-02-10T08:36:54.839Z,1.57
2019-02-10T08:39:59.204Z,1.73
2019-02-10T08:43:09.510Z,1.40
2019-02-10T08:45:57.654Z,1.73
2019-02-10T08:48:56.745Z,2.20
2019-02-10T08:52:20.581Z,2.70
2019-02-10T08:54:50.996Z,4.30
2019-02-10T08:57:22.742Z,4.70
2019-02-10T08:59:52.131Z,5.67
2019-02-10T09:02:21.554Z,8.03
2019-02-10T09:04:53.358Z,9.83
2019-02-10T09:07:25.998Z,10.67
2019-02-10T09:09:57.287Z,10.80
2019-02-10T09:12:38.612Z,12.17
2019-02-10T09:15:12.950Z,10.77
2019-02-10T09:19:17.026Z,10.50
2019-02-10T09:21:51.768Z,10.57
2019-02-10T09:24:21.236Z,10.23
2019-02-10T09:26:53.446Z,9.87
2019-02-10T09:29:22.890Z,8.30
2019-02-10T09:31:52.280Z,7.77
2019-02-10T09:34:22.392Z,6.10
2019-02-10T09:37:15.153Z,4.70
2019-02-10T09:39:44.682Z,4.40
2019-02-10T09:42:14.446Z,4.47
2019-02-10T09:44:44.159Z,6.00
2019-02-10T09:47:20.798Z,7.87
2019-02-10T09:49:51.513Z,6.43
2019-02-10T09:52:24.229Z,7.47
2019-02-10T09:57:48.880Z,6.20
2019-02-10T10:00:44.775Z,6.70
2019-02-10T10:03:14.244Z,5.90
2019-02-10T10:06:00.657Z,6.10
2019-02-10T10:08:30.503Z,4.53
2019-02-10T10:11:53.719Z,5.17
2019-02-10T10:14:30.514Z,4.57
2019-02-10T10:20:26.281Z,4.00
2019-02-10T10:22:58.450Z,3.50
2019-02-10T10:25:32.280Z,3.00
2019-02-10T10:28:02.498Z,3.17
2019-02-10T10:30:38.492Z,3.17
2019-02-10T10:33:14.218Z,2.83
2019-02-10T10:39:34.718Z,1.77
2019-02-10T10:42:04.076Z,1.70
2019-02-10T10:44:33.471Z,2.80
2019-02-10T10:47:04.875Z,3.60
2019-02-10T10:49:41.191Z,3.20
2019-02-10T10:52:13.346Z,3.80
2019-02-10T10:54:45.410Z,3.40
2019-02-10T10:57:16.003Z,3.27
2019-02-10T10:59:48.416Z,2.50
2019-02-10T11:02:35.076Z,2.10
2019-02-10T11:05:23.747Z,2.30
2019-02-10T11:08:27.415Z,2.40
2019-02-10T11:11:38.187Z,1.97
2019-02-10T11:14:46.764Z,1.67
2019-02-10T11:17:53.628Z,1.30
2019-02-10T11:25:00.252Z,1.23
2019-02-10T11:27:52.764Z,1.27
2019-02-10T11:30:32.963Z,1.60
2019-02-10T11:33:12.735Z,1.37
2019-02-10T11:35:56.351Z,1.63
2019-02-10T11:38:28.941Z,1.90
2019-02-10T11:48:01.755Z,1.40
2019-02-10T11:51:02.052Z,1.17
2019-02-10T11:53:31.692Z,1.50
2019-02-10T11:59:59.953Z,1.40
2019-02-10T12:03:41.824Z,0.80
2019-02-10T12:06:11.630Z,0.50
2019-02-10T12:09:06.741Z,0.90
2019-02-10T12:11:36.495Z,0.70
2019-02-10T12:14:05.954Z,0.90
2019-02-10T12:16:41.789Z,0.90
2019-02-10T12:19:14.573Z,0.90
2019-02-10T12:22:06.542Z,0.83
2019-02-10T12:24:37.269Z,1.53
2019-02-10T12:27:20.317Z,0.83
2019-02-10T12:29:57.810Z,1.10
2019-02-10T12:32:28.546Z,0.77
2019-02-10T12:34:58.131Z,0.90
2019-02-10T12:37:42.041Z,1.13
2019-02-10T12:40:20.110Z,0.97
2019-02-10T12:42:59.848Z,1.23
2019-02-10T12:45:29.480Z,1.00
2019-02-10T12:47:59.047Z,0.53
2019-02-10T12:50:28.926Z,0.70
2019-02-10T12:52:58.842Z,0.70
2019-02-10T12:55:29.059Z,0.90
2019-02-10T12:58:09.472Z,1.00
2019-02-10T13:00:41.897Z,0.60
2019-02-10T13:03:14.057Z,0.90
2019-02-10T13:05:43.695Z,1.00
2019-02-10T13:08:13.411Z,1.30
2019-02-10T13:10:45.027Z,0.70
2019-02-10T13:13:19.275Z,0.90
2019-02-10T13:15:47.264Z,1.03
2019-02-10T13:18:17.236Z,0.80
2019-02-10T13:20:46.733Z,1.10
2019-02-10T13:23:21.567Z,1.00
2019-02-10T13:25:54.113Z,1.53
2019-02-10T13:28:23.489Z,1.30
2019-02-10T13:30:55.625Z,1.50
2019-02-10T13:33:26.666Z,1.60
2019-02-10T13:35:56.416Z,2.27
2019-02-10T13:38:25.925Z,1.67
2019-02-10T13:40:55.515Z,1.77
2019-02-10T13:43:33.182Z,1.20
2019-02-10T13:45:59.385Z,1.00
2019-02-10T13:48:31.742Z,1.20
2019-02-10T13:51:01.387Z,0.90
2019-02-10T13:53:31.073Z,0.93
2019-02-10T13:56:00.649Z,1.30
2019-02-10T13:58:30.512Z,1.13
2019-02-10T14:01:00.501Z,1.20
2019-02-10T14:03:30.928Z,1.10
2019-02-10T14:06:00.545Z,1.70
2019-02-10T14:08:30.681Z,1.40
2019-02-10T14:11:00.211Z,1.30
2019-02-10T14:13:41.138Z,1.40
2019-02-10T14:16:10.884Z,1.63
2019-02-10T14:18:58.976Z,1.00
2019-02-10T14:21:30.414Z,1.27
2019-02-10T14:24:00.085Z,1.07
2019-02-10T14:26:29.537Z,1.03
2019-02-10T14:29:00.518Z,0.83
2019-02-10T14:31:30.457Z,0.70
2019-02-10T14:34:00.482Z,0.50
2019-02-10T14:36:32.739Z,0.67
2019-02-10T14:39:05.995Z,0.63
2019-02-10T14:41:35.518Z,0.50
2019-02-10T14:44:04.881Z,0.70
2019-02-10T14:46:44.672Z,0.43
2019-02-10T14:49:17.554Z,0.60
2019-02-10T14:51:51.562Z,1.30
2019-02-10T14:54:21.846Z,1.13
2019-02-10T14:56:57.930Z,0.73
2019-02-10T14:59:28.044Z,0.97
2019-02-10T15:01:57.573Z,1.33
2019-02-10T15:04:39.500Z,1.10
2019-02-10T15:07:17.583Z,1.00
2019-02-10T15:09:54.255Z,1.23
2019-02-10T15:12:48.782Z,0.80
2019-02-10T15:15:18.495Z,0.43
2019-02-10T15:17:51.333Z,0.60
2019-02-10T15:20:26.780Z,0.80
2019-02-10T15:23:02.813Z,0.57
2019-02-10T15:25:33.099Z,1.00
2019-02-10T15:28:03.203Z,0.60
2019-02-10T15:30:33.411Z,0.60
2019-02-10T15:33:02.864Z,0.70
2019-02-10T15:35:38.877Z,0.90
2019-02-10T15:38:08.780Z,1.13
2019-02-10T15:40:49.855Z,1.00
2019-02-10T15:43:19.120Z,0.80
2019-02-10T15:45:49.317Z,1.07
2019-02-10T15:48:21.917Z,1.20
2019-02-10T15:50:52.315Z,1.00
2019-02-10T15:53:22.097Z,0.80
2019-02-10T15:55:52.898Z,0.80
2019-02-10T15:58:28.338Z,1.20
2019-02-10T16:01:00.677Z,0.43
2019-02-10T16:03:30.235Z,0.83
2019-02-10T16:06:00.141Z,0.70
2019-02-10T16:08:30.624Z,0.50
2019-02-10T16:11:00.165Z,0.30
2019-02-10T16:13:29.834Z,0.77
2019-02-10T16:16:01.325Z,0.83
2019-02-10T16:18:33.635Z,1.07
2019-02-10T16:21:11.332Z,1.10
2019-02-10T16:23:42.788Z,0.70
2019-02-10T16:26:14.978Z,0.43
2019-02-10T16:28:44.424Z,1.03
2019-02-10T16:31:16.449Z,1.20
2019-02-10T16:33:46.158Z,0.98
2019-02-10T16:36:19.856Z,0.77
2019-02-10T16:38:51.139Z,1.00
2019-02-10T16:41:21.579Z,0.60
2019-02-10T16:43:51.174Z,0.97
2019-02-10T16:46:21.307Z,0.60
2019-02-10T16:48:51.491Z,1.00
2019-02-10T16:51:20.942Z,0.67
2019-02-10T16:53:54.228Z,0.77
2019-02-10T16:56:23.487Z,0.80
2019-02-10T16:58:52.886Z,0.87
2019-02-10T17:01:22.277Z,1.00
2019-02-10T17:03:53.151Z,0.57
2019-02-10T17:06:22.677Z,0.60
2019-02-10T17:08:52.065Z,0.90
2019-02-10T17:11:21.550Z,0.50
2019-02-10T17:13:50.874Z,0.80
2019-02-10T17:16:23.494Z,0.70
2019-02-10T17:18:52.927Z,1.57
2019-02-10T17:21:25.943Z,1.10
2019-02-10T17:23:55.055Z,1.00
2019-02-10T17:26:24.564Z,1.27
2019-02-10T17:28:54.147Z,3.07
2019-02-10T17:31:23.516Z,1.67
2019-02-10T17:33:59.026Z,1.87
2019-02-10T17:36:30.106Z,1.40
2019-02-10T17:39:04.204Z,2.73
2019-02-10T17:41:40.403Z,1.47
2019-02-10T17:44:09.961Z,2.20
2019-02-10T17:46:55.421Z,1.50
2019-02-10T17:49:24.872Z,1.63
2019-02-10T17:52:00.193Z,1.53
2019-02-10T17:54:29.535Z,1.80
2019-02-10T17:56:59.056Z,2.03
2019-02-10T17:59:28.649Z,1.30
2019-02-10T18:01:58.075Z,1.10
2019-02-10T18:04:27.516Z,1.37
2019-02-10T18:06:56.868Z,1.67
2019-02-10T18:09:27.474Z,1.37
2019-02-10T18:12:05.375Z,1.00
2019-02-10T18:15:08.408Z,1.67
2019-02-10T18:18:02.488Z,1.83
2019-02-10T18:21:06.194Z,1.53
2019-02-10T18:24:01.107Z,1.00
2019-02-10T18:26:58.410Z,1.47
2019-02-10T18:29:36.570Z,1.20
2019-02-10T18:32:35.765Z,1.47
2019-02-10T18:35:34.914Z,1.27
2019-02-10T18:38:29.214Z,4.20
2019-02-10T18:41:25.537Z,2.77
2019-02-10T18:44:07.533Z,2.53
2019-02-10T18:46:55.573Z,2.43
2019-02-10T18:49:56.090Z,1.83
2019-02-10T18:52:53.302Z,2.10
2019-02-10T18:55:45.211Z,2.03
2019-02-10T18:58:54.203Z,1.77
2019-02-10T19:01:54.801Z,1.30
2019-02-10T19:04:43.202Z,2.00
2019-02-10T19:07:40.482Z,1.30
2019-02-10T19:10:34.586Z,1.77
2019-02-10T19:13:29.884Z,1.60
2019-02-10T19:16:17.467Z,1.87
2019-02-10T19:18:55.406Z,1.20
2019-02-10T19:21:42.487Z,1.17
2019-02-10T19:24:33.964Z,1.87
2019-02-10T19:27:31.256Z,2.60
2019-02-10T19:30:22.338Z,1.67
2019-02-10T19:33:15.986Z,1.63
2019-02-10T19:36:10.345Z,1.70
2019-02-10T19:39:01.359Z,1.80
2019-02-10T19:41:39.284Z,2.07
2019-02-10T19:44:29.244Z,1.30
2019-02-10T19:47:05.816Z,1.60
2019-02-10T19:50:12.357Z,1.70
2019-02-10T19:52:51.412Z,1.20
2019-02-10T19:55:56.719Z,1.57
2019-02-10T19:58:37.835Z,1.70
2019-02-10T20:01:32.075Z,1.60
2019-02-10T20:04:07.762Z,2.37
2019-02-10T20:06:47.201Z,2.25
2019-02-10T20:09:49.230Z,2.13
2019-02-10T20:12:37.540Z,1.83
2019-02-10T20:15:35.080Z,2.20
2019-02-10T20:18:28.957Z,1.67
2019-02-10T20:21:18.121Z,1.43
2019-02-10T20:24:08.092Z,1.70
2019-02-10T20:26:46.023Z,1.37
2019-02-10T20:29:39.994Z,1.93
2019-02-10T20:32:44.324Z,1.43
2019-02-10T20:35:26.618Z,1.60
2019-02-10T20:38:26.877Z,1.90
2019-02-10T20:41:27.140Z,2.37
2019-02-10T20:44:27.729Z,2.03
2019-02-10T20:47:09.427Z,2.60
2019-02-10T20:49:59.718Z,1.57
2019-02-10T20:52:46.756Z,1.33
2019-02-10T20:55:29.901Z,1.90
2019-02-10T20:58:06.790Z,1.60
2019-02-10T21:00:44.004Z,3.40
2019-02-10T21:03:38.425Z,1.93
2019-02-10T21:06:27.312Z,1.57
2019-02-10T21:09:16.014Z,2.27
2019-02-10T21:12:20.367Z,1.70
2019-02-10T21:15:09.295Z,1.73
2019-02-10T21:18:01.633Z,1.60
2019-02-10T21:20:58.804Z,2.77
2019-02-10T21:23:57.345Z,2.60
2019-02-10T21:26:42.826Z,2.97
2019-02-10T21:29:32.238Z,3.30
2019-02-10T21:32:29.841Z,4.20
2019-02-10T21:35:10.377Z,3.40
2019-02-10T21:38:02.548Z,3.20
2019-02-10T21:40:49.479Z,3.40
2019-02-10T21:43:37.450Z,3.27
2019-02-10T21:46:24.427Z,3.57
2019-02-10T21:49:00.388Z,3.60
2019-02-10T21:51:29.836Z,3.00
2019-02-10T21:53:59.432Z,4.33
2019-02-10T21:56:31.797Z,3.47
2019-02-10T21:59:01.200Z,4.60
2019-02-10T22:01:30.634Z,3.47
2019-02-10T22:04:00.063Z,3.47
2019-02-10T22:06:30.657Z,3.37
2019-02-10T22:09:00.054Z,4.30
2019-02-10T22:11:29.585Z,2.97
2019-02-10T22:13:59.017Z,3.03
2019-02-10T22:16:29.429Z,2.90
2019-02-10T22:18:58.750Z,3.60
2019-02-10T22:21:28.195Z,2.50
2019-02-10T22:23:57.452Z,2.00
2019-02-10T22:26:30.170Z,3.63
2019-02-10T22:28:59.581Z,1.83
2019-02-10T22:31:29.028Z,2.20
2019-02-10T22:33:58.377Z,1.83
2019-02-10T22:36:27.745Z,1.53
2019-02-10T22:38:57.236Z,2.20
2019-02-10T22:41:26.615Z,2.37
2019-02-10T22:43:55.939Z,3.10
2019-02-10T22:46:25.318Z,2.97
2019-02-10T22:48:54.706Z,2.10
2019-02-10T22:51:29.876Z,3.40
2019-02-10T22:53:59.433Z,2.00
2019-02-10T22:56:31.117Z,2.73
2019-02-10T22:59:00.451Z,2.33
2019-02-10T23:01:31.025Z,1.63
2019-02-10T23:04:00.331Z,2.40
2019-02-10T23:06:29.720Z,1.53
2019-02-10T23:08:59.055Z,1.57
2019-02-10T23:11:29.850Z,1.30
2019-02-10T23:14:00.280Z,1.67
2019-02-10T23:16:30.883Z,2.80
2019-02-10T23:19:00.174Z,2.33
2019-02-10T23:21:29.477Z,2.83
2019-02-10T23:23:59.282Z,2.83
2019-02-10T23:26:28.675Z,2.03
2019-02-10T23:28:58.138Z,2.07
2019-02-10T23:31:27.774Z,1.57
2019-02-10T23:33:57.487Z,2.90
2019-02-10T23:36:26.810Z,1.47
2019-02-10T23:38:56.073Z,1.97
2019-02-10T23:41:30.681Z,1.50
2019-02-10T23:44:00.053Z,1.83
2019-02-10T23:46:29.844Z,2.20
2019-02-10T23:48:59.523Z,2.20
2019-02-10T23:51:28.903Z,2.97
2019-02-10T23:53:58.302Z,2.30
2019-02-10T23:56:30.457Z,2.97
2019-02-10T23:58:59.756Z,3.10
